Time;durP1;ratioP1;P1;durP2;ratioP2;P2;SDS_P1;SDS_P2;PMS_P1;PMS_P2;Temp;Humidity;BMP_temperature;BMP_pressure;BME280_temperature;BME280_humidity;BME280_pressure;Samples;Min_cycle;Max_cycle;Signal;HPM_P1;HPM_P2
2022/07/18 03:36:34;;;;;;;;;;;;;;;10.27;89.31;100333.53;4959903;28;19932;-85
2022/07/18 03:38:59;;;;;;;;;;;;;;;10.44;92.47;100328.56;4981531;28;20012;-85
2022/07/18 03:41:25;;;;;;;;;;;;;;;10.21;90.66;100331.09;4982485;28;19972;-85
2022/07/18 03:43:50;;;;;;;;;;;;;;;10.62;93.52;100336.81;4983796;28;19938;-87
2022/07/18 03:46:15;;;;;;;;;;;;;;;10.26;91.77;100339.72;4984028;28;19918;-86
2022/07/18 03:48:40;;;;;;;;;;;;;;;10.54;94.21;100339.72;4982473;28;19930;-87
2022/07/18 03:51:06;;;;;;;;;;;;;;;10.29;92.84;100339.63;4974137;28;20005;-89
2022/07/18 03:53:31;;;;;;;;;;;;;;;10.54;94.31;100345.88;4974026;28;19976;-87
2022/07/18 03:55:56;;;;;;;;;;;;;;;10.46;93.30;100347.06;4955404;28;19923;-88
2022/07/18 03:58:22;;;;;;;;;;;;;;;10.46;93.99;100347.06;4973891;28;19922;-88
2022/07/18 04:00:47;;;;;;;;;;;;;;;10.49;93.65;100346.97;4973766;28;19918;-85
2022/07/18 04:03:13;;;;;;;;;;;;;;;10.52;92.86;100341.56;4972855;28;19929;-84
2022/07/18 04:05:38;;;;;;;;;;;;;;;10.71;93.01;100344.47;4973135;28;19918;-84
2022/07/18 04:08:03;;;;;;;;;;;;;;;10.49;92.61;100350.47;4973705;28;20416;-84
2022/07/18 04:10:29;;;;;;;;;;;;;;;10.70;93.52;100348.88;4973682;28;19948;-83
2022/07/18 04:12:55;;;;;;;;;;;;;;;10.45;92.74;100351.50;4973452;28;19918;-84
2022/07/18 04:15:21;;;;;;;;;;;;;;;10.63;94.75;100349.16;4973604;28;20325;-84
2022/07/18 04:17:47;;;;;;;;;;;;;;;10.43;92.87;100349.81;4973416;28;20385;-83
2022/07/18 04:20:12;;;;;;;;;;;;;;;10.62;95.06;100347.41;4954652;28;19924;-84
2022/07/18 04:22:45;;;;;;;;;;;;;;;10.42;93.48;100348.06;4973435;28;19918;-85
2022/07/18 04:25:11;;;;;;;;;;;;;;;10.73;95.27;100339.97;4972716;28;19918;-84
2022/07/18 04:27:36;;;;;;;;;;;;;;;10.67;93.87;100346.34;4955229;28;19959;-84
2022/07/18 04:30:01;;;;;;;;;;;;;;;10.71;95.17;100345.31;4971652;28;19992;-84
2022/07/18 04:32:26;;;;;;;;;;;;;;;10.60;93.60;100349.25;4973178;28;19925;-82
2022/07/18 08:11:56;;;;;;;;;;;;;;;10.85;92.42;100282.97;5557748;23;20011;-87
2022/07/18 08:14:21;;;;;;;;;;;;;;;10.71;91.27;100279.06;5001017;28;19941;-85
2022/07/18 08:16:47;;;;;;;;;;;;;;;10.76;92.08;100280.69;5001433;28;19913;-85
2022/07/18 08:19:13;;;;;;;;;;;;;;;10.70;90.34;100281.75;5001781;28;20400;-86
2022/07/18 08:21:45;;;;;;;;;;;;;;;10.80;91.07;100277.00;5001791;28;19918;-86
2022/07/18 08:24:16;;;;;;;;;;;;;;;10.95;90.65;100272.94;4999906;28;19922;-86
2022/07/18 08:26:51;;;;;;;;;;;;;;;10.69;89.40;100265.00;4998755;28;19918;-86
2022/07/18 08:29:16;;;;;;;;;;;;;;;10.85;91.92;100267.06;5001431;28;19932;-85
2022/07/18 08:31:49;;;;;;;;;;;;;;;10.58;90.27;100268.94;5001636;28;20201;-86
2022/07/18 08:34:17;;;;;;;;;;;;;;;10.96;93.31;100259.63;4984491;28;20372;-88
2022/07/18 08:36:53;;;;;;;;;;;;;;;;;;;;;
2022/07/18 08:39:18;;;;;;;;;;;;;;;10.70;92.68;100263.19;5001027;28;20291;-86
2022/07/18 08:41:46;;;;;;;;;;;;;;;10.67;91.83;100258.00;4999839;28;20016;-86
2022/07/18 08:44:11;;;;;;;;;;;;;;;10.77;91.57;100261.19;5000531;28;19972;-86
2022/07/18 08:46:38;;;;;;;;;;;;;;;10.77;92.22;100262.06;4984638;28;19957;-86
2022/07/18 08:49:07;;;;;;;;;;;;;;;10.63;91.27;100259.06;4984399;28;20944;-87
2022/07/18 08:51:34;;;;;;;;;;;;;;;10.97;93.14;100269.28;4983758;28;19980;-86
2022/07/18 08:54:01;;;;;;;;;;;;;;;10.49;91.73;100270.13;4999600;28;20005;-86
2022/07/18 08:56:32;;;;;;;;;;;;;;;10.82;93.97;100269.88;4982981;28;19972;-86
2022/07/18 08:59:02;;;;;;;;;;;;;;;10.64;92.42;100272.25;4984173;28;19924;-85
2022/07/18 09:01:28;;;;;;;;;;;;;;;10.97;94.04;100268.44;4999485;28;20016;-86
2022/07/18 09:06:43;;;;;;;;;;;;;;;11.07;94.12;100268.03;4999401;28;20321;-86
2022/07/18 09:09:10;;;;;;;;;;;;;;;10.92;93.27;100259.78;4999749;28;19930;-85
2022/07/18 09:11:35;;;;;;;;;;;;;;;11.00;92.99;100269.19;4999812;28;20022;-86
2022/07/18 09:14:03;;;;;;;;;;;;;;;10.99;93.19;100261.28;4999912;28;20013;-86
2022/07/18 09:16:28;;;;;;;;;;;;;;;10.93;92.07;100261.50;5000920;28;19945;-86
2022/07/18 09:18:54;;;;;;;;;;;;;;;11.06;93.29;100261.00;5000363;28;20394;-86
2022/07/18 09:21:20;;;;;;;;;;;;;;;10.84;91.19;100252.13;4997514;28;19944;-85
2022/07/18 09:23:51;;;;;;;;;;;;;;;11.22;92.55;100252.47;4999046;28;19937;-85
2022/07/18 09:26:35;;;;;;;;;;;;;;;10.98;90.17;100249.81;4996779;28;20020;-86
2022/07/18 09:29:00;;;;;;;;;;;;;;;11.54;92.91;100250.38;5000760;28;19921;-86
2022/07/18 09:31:25;;;;;;;;;;;;;;;11.05;91.32;100248.66;4985489;28;19922;-85
2022/07/18 09:33:55;;;;;;;;;;;;;;;11.21;92.83;100240.97;4987409;28;20316;-86
2022/07/18 09:36:20;;;;;;;;;;;;;;;11.47;90.36;100240.91;5003647;28;20349;-87
2022/07/18 09:38:45;;;;;;;;;;;;;;;11.33;92.21;100244.97;4985695;28;20003;-87
2022/07/18 09:41:11;;;;;;;;;;;;;;;11.24;92.66;100240.00;5001140;28;19928;-86
2022/07/18 09:43:37;;;;;;;;;;;;;;;11.69;93.23;100224.97;4987443;28;19917;-86
2022/07/18 09:46:04;;;;;;;;;;;;;;;11.27;92.91;100238.09;4987298;28;19922;-86
2022/07/18 09:48:29;;;;;;;;;;;;;;;11.38;92.55;100237.69;4987599;28;20368;-86
2022/07/18 09:50:56;;;;;;;;;;;;;;;11.13;92.89;100236.91;4980846;28;19968;-87
2022/07/18 09:53:41;;;;;;;;;;;;;;;11.05;92.44;100238.03;5003989;28;20324;-86
2022/07/18 09:56:23;;;;;;;;;;;;;;;11.61;93.28;100233.25;4985731;28;20019;-86
2022/07/18 09:58:54;;;;;;;;;;;;;;;11.31;90.79;100230.03;5002840;28;19914;-86
2022/07/18 10:01:20;;;;;;;;;;;;;;;11.35;93.36;100231.63;5003401;28;19953;-86
2022/07/18 10:03:46;;;;;;;;;;;;;;;11.05;92.46;100230.09;5004738;28;19983;-86
2022/07/18 10:06:21;;;;;;;;;;;;;;;;;;;;;
2022/07/18 10:08:47;;;;;;;;;;;;;;;11.19;91.76;100226.06;5000559;28;19925;-86
2022/07/18 10:11:12;;;;;;;;;;;;;;;11.36;93.32;100218.31;4984000;28;19932;-86
2022/07/18 10:13:40;;;;;;;;;;;;;;;11.16;91.97;100218.22;5002829;28;19925;-85
2022/07/18 10:16:06;;;;;;;;;;;;;;;11.17;93.09;100219.94;5000952;28;20321;-86
2022/07/18 10:18:33;;;;;;;;;;;;;;;11.36;91.12;100218.31;5001310;28;19980;-86
2022/07/18 10:21:02;;;;;;;;;;;;;;;11.27;92.27;100216.88;4985124;28;20373;-86
2022/07/18 10:23:48;;;;;;;;;;;;;;;11.20;91.84;100211.84;4998170;28;19921;-87
2022/07/18 10:26:19;;;;;;;;;;;;;;;11.23;91.37;100217.94;4985623;28;19921;-87
2022/07/18 10:28:59;;;;;;;;;;;;;;;11.81;91.19;100209.41;4986620;28;19921;-86
2022/07/18 10:31:26;;;;;;;;;;;;;;;11.14;90.61;100212.13;5000258;28;19922;-87
2022/07/18 10:33:55;;;;;;;;;;;;;;;11.25;92.25;100215.22;5001748;28;19929;-87
2022/07/18 10:36:21;;;;;;;;;;;;;;;11.19;90.55;100221.63;5001957;28;20366;-86
2022/07/18 10:39:08;;;;;;;;;;;;;;;11.55;92.20;100213.16;4985930;28;19924;-86
2022/07/18 10:41:42;;;;;;;;;;;;;;;10.89;91.20;100210.38;4999435;28;19922;-86
2022/07/18 10:44:23;;;;;;;;;;;;;;;11.38;93.17;100212.94;4982552;28;20345;-86
2022/07/18 10:47:13;;;;;;;;;;;;;;;10.94;91.46;100211.06;4998877;28;20044;-86
2022/07/18 10:49:52;;;;;;;;;;;;;;;11.04;90.15;100215.13;5001020;28;19968;-88
2022/07/18 10:52:28;;;;;;;;;;;;;;;11.11;90.56;100217.53;4992994;28;20024;-87
2022/07/18 10:55:00;;;;;;;;;;;;;;;11.01;88.70;100206.41;4985694;28;19960;-87
2022/07/18 10:57:25;;;;;;;;;;;;;;;11.20;90.62;100211.84;4999588;28;20381;-86
2022/07/18 11:00:04;;;;;;;;;;;;;;;11.02;88.99;100211.63;5001923;28;20008;-86
2022/07/18 11:02:39;;;;;;;;;;;;;;;11.22;89.88;100218.00;4984135;28;20444;-87
2022/07/18 11:05:25;;;;;;;;;;;;;;;11.14;90.43;100214.78;4984179;28;20365;-87
2022/07/18 11:08:13;;;;;;;;;;;;;;;10.99;89.15;100202.94;4978050;28;19991;-86
2022/07/18 11:10:41;;;;;;;;;;;;;;;11.27;91.64;100203.59;4989362;28;20328;-87
2022/07/18 11:13:27;;;;;;;;;;;;;;;11.23;89.70;100204.66;4985307;28;20332;-86
2022/07/18 11:16:06;;;;;;;;;;;;;;;11.24;90.72;100210.81;4999967;28;19936;-86
2022/07/18 11:18:33;;;;;;;;;;;;;;;11.01;90.27;100207.28;4998527;28;19921;-87
2022/07/18 11:20:58;;;;;;;;;;;;;;;10.99;89.71;100211.78;4984684;28;20496;-88
2022/07/18 11:23:24;;;;;;;;;;;;;;;11.47;90.16;100209.06;4984703;28;19922;-87
2022/07/18 11:25:58;;;;;;;;;;;;;;;11.20;88.55;100193.28;4979280;28;19925;-87
2022/07/18 11:28:25;;;;;;;;;;;;;;;11.18;91.11;100201.31;4993485;28;19944;-87
2022/07/18 11:31:01;;;;;;;;;;;;;;;10.85;89.06;100196.38;5002164;28;19960;-88
2022/07/18 11:33:29;;;;;;;;;;;;;;;11.38;90.96;100197.88;4983467;28;19965;-88
2022/07/18 11:36:11;;;;;;;;;;;;;;;11.38;89.58;100192.59;4999168;28;19925;-88
2022/07/18 11:38:37;;;;;;;;;;;;;;;11.43;90.54;100184.44;4984043;28;20457;-87
2022/07/18 11:41:13;;;;;;;;;;;;;;;;;;;;;
2022/07/18 11:44:04;;;;;;;;;;;;;;;10.81;89.60;100180.66;4999674;28;20277;-86
2022/07/18 11:46:30;;;;;;;;;;;;;;;10.97;90.18;100176.50;4972668;28;19930;-87
2022/07/18 11:49:24;;;;;;;;;;;;;;;10.70;88.09;100176.59;5000188;28;19932;-88
2022/07/18 11:51:49;;;;;;;;;;;;;;;11.10;89.68;100179.53;4984334;28;20289;-87
2022/07/18 11:54:24;;;;;;;;;;;;;;;10.92;88.29;100175.81;4983874;28;19921;-87
2022/07/18 11:56:53;;;;;;;;;;;;;;;10.84;87.98;100165.50;4982726;28;19925;-87
2022/07/18 11:59:19;;;;;;;;;;;;;;;11.06;89.06;100178.78;5003079;28;19922;-87
2022/07/18 12:01:44;;;;;;;;;;;;;;;10.78;87.27;100172.81;4998857;28;19931;-87
2022/07/18 12:04:20;;;;;;;;;;;;;;;11.12;89.24;100166.22;4983033;28;19929;-87
2022/07/18 12:07:05;;;;;;;;;;;;;;;10.74;88.75;100161.47;4998615;28;19925;-87
2022/07/18 12:09:36;;;;;;;;;;;;;;;11.11;90.81;100164.50;4999319;28;19922;-87
2022/07/18 12:12:07;;;;;;;;;;;;;;;10.85;89.48;100161.94;4982174;28;20339;-87
2022/07/18 12:14:32;;;;;;;;;;;;;;;10.94;90.39;100165.16;4982467;28;20036;-86
2022/07/18 12:17:00;;;;;;;;;;;;;;;10.86;89.19;100152.19;4999517;28;20016;-87
2022/07/18 12:19:36;;;;;;;;;;;;;;;10.86;88.88;100160.13;4998544;28;19928;-87
2022/07/18 12:22:13;;;;;;;;;;;;;;;11.05;89.29;100147.03;5001015;28;19968;-87
2022/07/18 12:24:59;;;;;;;;;;;;;;;10.89;87.42;100146.75;4988064;28;20678;-87
2022/07/18 12:27:27;;;;;;;;;;;;;;;11.34;89.88;100145.00;4982545;28;19947;-87
2022/07/18 12:30:03;;;;;;;;;;;;;;;10.86;87.79;100150.38;5000870;28;19926;-87
2022/07/18 12:32:45;;;;;;;;;;;;;;;11.00;88.85;100152.50;4998204;28;19932;-88
2022/07/18 12:35:15;;;;;;;;;;;;;;;11.01;89.05;100148.94;4983770;28;20328;-87
2022/07/18 12:37:41;;;;;;;;;;;;;;;11.03;87.04;100152.38;4990029;28;19972;-87
2022/07/18 12:40:13;;;;;;;;;;;;;;;10.99;89.60;100145.50;4984119;28;19918;-87
2022/07/18 12:42:48;;;;;;;;;;;;;;;10.84;88.10;100144.28;4980862;28;19924;-87
2022/07/18 12:45:16;;;;;;;;;;;;;;;11.47;89.97;100140.91;4992908;28;19925;-87
2022/07/18 12:47:44;;;;;;;;;;;;;;;11.06;89.28;100148.78;4983257;28;20499;-87
2022/07/18 12:50:09;;;;;;;;;;;;;;;11.35;91.19;100134.34;4980890;28;20380;-86
2022/07/18 12:52:35;;;;;;;;;;;;;;;11.11;90.11;100137.97;4985094;28;19976;-87
2022/07/18 12:55:02;;;;;;;;;;;;;;;11.13;92.01;100130.81;4982089;28;19926;-88
2022/07/18 12:57:28;;;;;;;;;;;;;;;11.03;91.32;100125.03;4981903;28;19921;-87
2022/07/18 12:59:55;;;;;;;;;;;;;;;10.98;90.56;100122.53;4981709;28;20423;-87
2022/07/18 13:02:21;;;;;;;;;;;;;;;10.98;91.43;100121.69;4982736;28;20025;-87
2022/07/18 13:04:50;;;;;;;;;;;;;;;10.84;90.01;100114.28;4986387;28;20416;-89
2022/07/18 13:07:15;;;;;;;;;;;;;;;11.22;91.27;100117.19;5003394;28;19961;-87
2022/07/18 13:09:40;;;;;;;;;;;;;;;11.00;89.75;100115.38;4985116;28;19984;-87
2022/07/18 13:12:09;;;;;;;;;;;;;;;11.35;91.54;100112.25;5003717;28;20427;-87
2022/07/18 13:14:34;;;;;;;;;;;;;;;11.17;89.69;100103.22;4986629;28;20024;-87
2022/07/18 13:17:02;;;;;;;;;;;;;;;11.36;91.88;100100.69;4986847;28;20343;-87
2022/07/18 13:19:28;;;;;;;;;;;;;;;11.23;90.61;100101.22;5004118;28;20624;-87
2022/07/18 13:21:53;;;;;;;;;;;;;;;11.69;91.48;100093.13;5003728;28;20317;-87
2022/07/18 13:24:19;;;;;;;;;;;;;;;11.65;90.38;100086.22;5002965;28;19917;-87
2022/07/18 13:26:44;;;;;;;;;;;;;;;11.52;92.12;100090.31;4985077;28;20443;-87
2022/07/18 13:29:09;;;;;;;;;;;;;;;11.15;91.40;100091.84;5003440;28;19921;-86
2022/07/18 13:31:36;;;;;;;;;;;;;;;11.62;93.55;100086.38;5003103;28;19929;-87
2022/07/18 13:34:04;;;;;;;;;;;;;;;11.05;91.60;100089.53;5001976;28;19963;-88
2022/07/18 13:36:32;;;;;;;;;;;;;;;11.12;91.46;100076.03;4986469;28;19918;-87
2022/07/18 13:38:57;;;;;;;;;;;;;;;11.15;91.37;100078.56;5004140;28;20028;-88
2022/07/18 13:41:22;;;;;;;;;;;;;;;10.97;89.86;100078.38;5002473;28;20436;-87
2022/07/18 13:43:48;;;;;;;;;;;;;;;11.02;90.95;100076.41;4985858;28;20404;-87
2022/07/18 13:46:18;;;;;;;;;;;;;;;10.87;88.58;100077.03;4984543;28;19932;-87
2022/07/18 13:48:43;;;;;;;;;;;;;;;11.07;90.03;100077.09;4987482;28;19926;-86
2022/07/18 13:51:09;;;;;;;;;;;;;;;10.81;87.91;100062.22;5002419;28;19936;-88
2022/07/18 13:53:34;;;;;;;;;;;;;;;11.31;89.50;100071.69;5001764;28;19972;-88
2022/07/18 13:56:09;;;;;;;;;;;;;;;11.52;88.15;100063.78;4986147;28;20007;-88
2022/07/18 13:58:38;;;;;;;;;;;;;;;11.49;89.12;100058.59;4984815;28;19941;-93
2022/07/18 14:01:03;;;;;;;;;;;;;;;11.21;89.61;100065.91;5000420;28;19925;-87
2022/07/18 14:03:31;;;;;;;;;;;;;;;11.06;89.51;100061.25;4985395;28;19921;-87
2022/07/18 14:05:56;;;;;;;;;;;;;;;11.16;90.95;100059.09;4987365;28;19953;-87
2022/07/18 14:08:21;;;;;;;;;;;;;;;11.02;89.74;100055.19;4984111;28;19984;-86
2022/07/18 14:10:47;;;;;;;;;;;;;;;11.38;91.51;100059.06;4985381;28;19922;-87
2022/07/18 14:13:12;;;;;;;;;;;;;;;11.16;90.25;100053.78;4985374;28;19932;-86
2022/07/18 14:15:37;;;;;;;;;;;;;;;11.37;92.12;100046.72;4986910;28;20407;-87
2022/07/18 14:18:04;;;;;;;;;;;;;;;11.12;90.54;100044.22;5002852;28;19956;-86
2022/07/18 14:20:32;;;;;;;;;;;;;;;11.48;91.98;100046.28;5001099;28;20397;-86
2022/07/18 14:22:57;;;;;;;;;;;;;;;11.38;89.80;100041.34;4986890;28;20416;-87
2022/07/18 14:25:25;;;;;;;;;;;;;;;11.51;92.05;100040.84;4984616;28;20004;-87
2022/07/18 14:27:50;;;;;;;;;;;;;;;11.19;91.06;100043.91;5002493;28;20016;-86
2022/07/18 14:30:18;;;;;;;;;;;;;;;11.40;93.09;100042.16;5003414;28;20041;-87
2022/07/18 14:32:43;;;;;;;;;;;;;;;11.31;91.01;100034.56;4981996;28;19918;-87
2022/07/18 14:35:09;;;;;;;;;;;;;;;11.47;93.00;100032.13;5003474;28;20016;-87
2022/07/18 14:37:37;;;;;;;;;;;;;;;11.29;90.90;100035.56;4999679;28;20009;-88
2022/07/18 14:40:06;;;;;;;;;;;;;;;11.36;92.52;100032.59;5000489;28;19929;-86
2022/07/18 14:42:35;;;;;;;;;;;;;;;11.27;91.27;100028.53;4984740;28;19917;-87
2022/07/18 14:45:02;;;;;;;;;;;;;;;11.37;92.16;100030.81;5000364;28;19921;-87
2022/07/18 14:47:32;;;;;;;;;;;;;;;11.21;91.53;100023.47;4986058;28;19991;-87
2022/07/18 14:50:01;;;;;;;;;;;;;;;11.28;90.61;100029.41;4983965;28;19932;-88
2022/07/18 14:52:36;;;;;;;;;;;;;;;11.37;90.43;100022.84;5003368;28;19949;-87
2022/07/18 14:55:01;;;;;;;;;;;;;;;11.12;88.79;100015.06;4984971;28;20365;-87
2022/07/18 14:57:27;;;;;;;;;;;;;;;11.39;90.79;100016.56;4985045;28;20026;-89
2022/07/18 15:00:04;;;;;;;;;;;;;;;11.21;88.74;100020.84;5002736;28;20053;-88
2022/07/18 15:02:36;;;;;;;;;;;;;;;11.37;91.14;100018.41;5018908;23;19921;-89
2022/07/18 15:05:02;;;;;;;;;;;;;;;11.22;90.42;100014.59;4965976;28;20457;-87
2022/07/18 15:07:30;;;;;;;;;;;;;;;11.38;91.28;100017.47;4964552;28;20067;-88
2022/07/18 15:09:56;;;;;;;;;;;;;;;11.26;90.85;100012.69;4964566;28;19926;-86
2022/07/18 15:12:23;;;;;;;;;;;;;;;11.23;90.97;100015.47;4964713;28;20263;-87
2022/07/18 15:14:58;;;;;;;;;;;;;;;11.34;91.18;100007.91;4966201;28;20293;-87
2022/07/18 15:17:23;;;;;;;;;;;;;;;11.17;89.32;100008.66;4984308;28;19925;-87
2022/07/18 15:19:51;;;;;;;;;;;;;;;11.48;90.50;100006.47;4966850;28;19926;-86
2022/07/18 15:22:17;;;;;;;;;;;;;;;11.15;89.32;99999.00;4965903;28;20064;-87
2022/07/18 15:24:42;;;;;;;;;;;;;;;11.30;91.16;99994.88;4983172;28;21102;-87
2022/07/18 15:27:10;;;;;;;;;;;;;;;11.21;89.63;100002.25;4964213;28;20586;-87
2022/07/18 15:29:35;;;;;;;;;;;;;;;11.55;91.34;99999.97;4982990;28;20270;-86
2022/07/18 15:32:12;;;;;;;;;;;;;;;;;;;;;
2022/07/18 15:34:40;;;;;;;;;;;;;;;11.62;90.75;99990.81;4984357;28;19925;-87
2022/07/18 15:37:20;;;;;;;;;;;;;;;11.50;90.76;99986.03;4984253;28;19921;-87
2022/07/18 15:39:54;;;;;;;;;;;;;;;11.41;89.44;99990.81;4966842;28;19922;-94
2022/07/18 15:45:15;;;;;;;;;;;;;;;11.31;90.38;99981.50;4982376;28;19929;-88
2022/07/18 15:47:40;;;;;;;;;;;;;;;11.32;92.59;99977.94;4964840;28;20429;-87
2022/07/18 15:50:13;;;;;;;;;;;;;;;11.24;90.12;99980.06;4966896;28;19969;-88
2022/07/18 15:52:40;;;;;;;;;;;;;;;11.29;90.43;99972.75;4982731;28;19926;-87
2022/07/18 15:55:05;;;;;;;;;;;;;;;11.12;89.49;99973.50;4964788;28;19939;-87
2022/07/18 15:57:39;;;;;;;;;;;;;;;11.22;88.97;99980.13;4964755;28;19922;-87
2022/07/18 16:00:44;;;;;;;;;;;;;;;;;;;;;
2022/07/18 16:03:04;;;;;;;;;;;;;;;11.17;89.06;99974.16;4983624;28;19921;-87
2022/07/18 16:05:32;;;;;;;;;;;;;;;11.30;91.43;99963.91;5012754;28;19917;-87
2022/07/18 16:08:01;;;;;;;;;;;;;;;11.20;89.62;99959.91;5012790;28;19921;-86
2022/07/18 16:10:55;;;;;;;;;;;;;;;11.13;90.45;99961.94;5012304;28;20031;-87
2022/07/18 16:13:36;;;;;;;;;;;;;;;11.02;90.96;99958.88;5011032;28;20364;-87
2022/07/18 16:16:03;;;;;;;;;;;;;;;10.95;88.61;99954.78;5012632;28;19918;-87
2022/07/18 16:18:28;;;;;;;;;;;;;;;11.52;90.48;99945.25;5012345;28;19918;-87
2022/07/18 16:21:24;;;;;;;;;;;;;;;;;;;;;
2022/07/18 16:23:52;;;;;;;;;;;;;;;11.01;90.26;99942.13;5010606;28;19922;-87
2022/07/18 16:26:22;;;;;;;;;;;;;;;11.22;90.59;99939.50;5009451;28;19932;-88
2022/07/18 16:29:10;;;;;;;;;;;;;;;11.23;88.13;99933.25;5002075;28;19957;-88
2022/07/18 16:32:11;;;;;;;;;;;;;;;;;;;;;
2022/07/18 16:34:45;;;;;;;;;;;;;;;11.32;89.81;99932.84;5011867;28;19922;-87
2022/07/18 16:37:11;;;;;;;;;;;;;;;11.17;89.12;99928.19;5001866;28;20292;-86
2022/07/18 16:39:38;;;;;;;;;;;;;;;11.36;90.44;99922.97;5011904;28;19921;-87
2022/07/18 16:42:26;;;;;;;;;;;;;;;11.06;88.84;99924.22;5001349;28;20004;-87
2022/07/18 16:45:01;;;;;;;;;;;;;;;11.38;91.58;99913.16;5012084;28;20609;-87
2022/07/18 16:47:28;;;;;;;;;;;;;;;11.27;89.94;99906.53;5011442;28;19921;-87
2022/07/18 16:49:58;;;;;;;;;;;;;;;11.42;89.93;99910.31;5010849;28;20277;-87
2022/07/18 16:52:26;;;;;;;;;;;;;;;11.21;89.79;99906.78;5012156;28;20004;-87
2022/07/18 16:55:09;;;;;;;;;;;;;;;11.16;88.46;99908.78;5002084;28;19924;-87
2022/07/18 16:57:35;;;;;;;;;;;;;;;11.32;90.57;99908.97;5001159;28;20384;-87
2022/07/18 17:00:08;;;;;;;;;;;;;;;11.00;88.62;99908.56;5012168;28;19926;-87
2022/07/18 17:02:36;;;;;;;;;;;;;;;11.29;90.87;99903.78;5001363;28;19953;-89
2022/07/18 17:05:05;;;;;;;;;;;;;;;10.94;89.26;99911.47;4963672;28;19921;-86
2022/07/18 17:07:41;;;;;;;;;;;;;;;;;;;;;
2022/07/18 17:10:17;;;;;;;;;;;;;;;11.25;90.18;99902.22;4982322;28;19921;-87
2022/07/18 17:12:43;;;;;;;;;;;;;;;10.90;89.03;99901.97;4964904;28;19961;-86
2022/07/18 17:15:08;;;;;;;;;;;;;;;11.26;90.92;99899.50;4966449;28;19968;-87
2022/07/18 17:17:36;;;;;;;;;;;;;;;10.91;89.04;99903.66;4964772;28;19938;-87
2022/07/18 17:20:11;;;;;;;;;;;;;;;11.19;91.42;99897.19;4964860;28;20378;-88
2022/07/18 17:22:59;;;;;;;;;;;;;;;11.11;89.24;99902.81;4982877;28;19968;-87
2022/07/18 17:25:30;;;;;;;;;;;;;;;10.83;89.53;99906.66;4978433;28;19933;-88
2022/07/18 17:28:23;;;;;;;;;;;;;;;11.30;90.18;99900.22;4956566;28;19926;-88
2022/07/18 17:30:49;;;;;;;;;;;;;;;11.05;88.51;99895.13;4970131;28;20357;-87
2022/07/18 17:33:15;;;;;;;;;;;;;;;11.16;90.61;99892.03;4965241;28;20005;-87
2022/07/18 17:38:20;;;;;;;;;;;;;;;11.18;89.61;99895.44;5042843;23;19929;-88
2022/07/18 17:41:04;;;;;;;;;;;;;;;;;;;;;
2022/07/18 17:43:40;;;;;;;;;;;;;;;;;;;;;
2022/07/18 17:52:12;;;;;;;;;;;;;;;11.18;89.66;99891.00;4999117;28;19924;-88
2022/07/18 17:55:01;;;;;;;;;;;;;;;11.41;90.32;99889.16;5042548;28;19917;-87
2022/07/18 17:57:43;;;;;;;;;;;;;;;11.21;89.81;99887.38;5033518;28;19924;-89
2022/07/18 18:00:29;;;;;;;;;;;;;;;;;;;;;
2022/07/18 18:03:05;;;;;;;;;;;;;;;11.30;90.80;99886.97;5041892;28;19932;-88
2022/07/18 18:06:19;;;;;;;;;;;;;;;;;;;;;
2022/07/18 18:11:52;;;;;;;;;;;;;;;11.34;90.98;99888.53;4924931;29;20426;-87
2022/07/18 18:14:20;;;;;;;;;;;;;;;11.35;90.50;99887.63;5023840;28;20012;-86
2022/07/18 18:16:48;;;;;;;;;;;;;;;11.23;91.33;99886.38;5041004;28;20389;-88
2022/07/18 18:19:44;;;;;;;;;;;;;;;;;;;;;
2022/07/18 18:22:14;;;;;;;;;;;;;;;11.42;92.04;99889.09;5035683;28;19913;-87
2022/07/18 18:27:52;;;;;;;;;;;;;;;11.51;90.89;99886.94;5036159;28;19928;-88
2022/07/18 18:30:19;;;;;;;;;;;;;;;11.38;91.01;99887.47;4999416;28;19960;-87
2022/07/18 18:32:55;;;;;;;;;;;;;;;11.13;89.98;99887.69;5030357;28;20391;-88
2022/07/18 18:35:30;;;;;;;;;;;;;;;;;;;;;
2022/07/18 18:41:19;;;;;;;;;;;;;;;;;;;;;
2022/07/18 18:43:48;;;;;;;;;;;;;;;11.50;91.33;99890.50;5034078;28;20287;-88
2022/07/18 18:46:18;;;;;;;;;;;;;;;11.36;90.43;99894.66;5024288;28;19917;-87
2022/07/18 18:48:56;;;;;;;;;;;;;;;;;;;;;
2022/07/18 18:51:31;;;;;;;;;;;;;;;;;;;;;
2022/07/18 18:54:06;;;;;;;;;;;;;;;11.57;92.30;99892.81;5035994;28;19927;-88
2022/07/18 18:56:36;;;;;;;;;;;;;;;11.24;91.40;99889.88;5040923;28;20019;-86
2022/07/18 18:59:19;;;;;;;;;;;;;;;11.49;93.07;99889.66;5017009;28;19948;-88
2022/07/18 19:01:52;;;;;;;;;;;;;;;11.32;92.14;99886.91;5032791;28;19925;-86
2022/07/18 19:04:32;;;;;;;;;;;;;;;11.35;92.24;99887.63;5022005;28;19979;-87
2022/07/18 19:06:57;;;;;;;;;;;;;;;11.50;92.45;99888.72;5031696;28;19995;-87
2022/07/18 19:09:23;;;;;;;;;;;;;;;11.31;91.46;99887.81;5035630;28;20467;-87
2022/07/18 19:11:48;;;;;;;;;;;;;;;11.51;93.01;99898.41;5017438;28;19918;-87
2022/07/18 19:14:17;;;;;;;;;;;;;;;11.27;91.55;99895.06;5023715;28;19936;-87
2022/07/18 19:16:45;;;;;;;;;;;;;;;11.53;93.61;99893.03;5023278;28;20303;-87
2022/07/18 19:19:10;;;;;;;;;;;;;;;11.35;92.28;99892.06;5038539;28;19994;-86
2022/07/18 19:21:35;;;;;;;;;;;;;;;11.61;93.79;99898.84;5042111;28;19921;-86
2022/07/18 19:24:03;;;;;;;;;;;;;;;11.41;92.45;99903.25;5016062;28;20060;-85
2022/07/18 19:26:29;;;;;;;;;;;;;;;11.59;93.25;99900.72;5041643;28;19921;-87
2022/07/18 19:28:54;;;;;;;;;;;;;;;11.48;92.58;99900.34;5034201;28;20322;-87
2022/07/18 19:31:19;;;;;;;;;;;;;;;11.60;92.67;99907.75;5038670;28;19921;-86
2022/07/18 19:33:45;;;;;;;;;;;;;;;11.64;92.72;99904.03;5016709;28;20396;-87
2022/07/18 19:36:12;;;;;;;;;;;;;;;11.55;92.10;99893.81;5038230;28;19921;-87
2022/07/18 19:38:58;;;;;;;;;;;;;;;11.45;93.71;99902.22;5037429;23;20397;-88
2022/07/18 19:44:23;;;;;;;;;;;;;;;11.74;93.97;99907.13;5018515;28;20377;-91
2022/07/18 19:46:48;;;;;;;;;;;;;;;11.56;92.71;99903.50;5013639;28;19917;-85
2022/07/18 19:49:14;;;;;;;;;;;;;;;11.59;93.34;99906.03;5012834;28;20259;-88
2022/07/18 19:51:44;;;;;;;;;;;;;;;11.59;93.12;99906.03;5016727;28;19928;-89
2022/07/18 19:54:29;;;;;;;;;;;;;;;11.59;92.98;99906.03;5001473;28;19933;-88
2022/07/18 19:57:36;;;;;;;;;;;;;;;11.81;93.76;99912.06;5012244;28;19917;-91
2022/07/18 20:00:02;;;;;;;;;;;;;;;11.41;92.90;99910.38;5011792;28;20007;-87
2022/07/18 20:02:36;;;;;;;;;;;;;;;11.90;94.88;99915.22;5017090;28;19918;-87
2022/07/18 20:05:06;;;;;;;;;;;;;;;11.73;94.32;99919.53;5021628;28;19925;-87
2022/07/18 20:07:34;;;;;;;;;;;;;;;11.81;94.92;99921.84;5015438;28;19921;-87
2022/07/18 20:09:59;;;;;;;;;;;;;;;11.82;94.52;99908.50;5002088;28;20365;-86
2022/07/18 20:12:45;;;;;;;;;;;;;;;11.62;94.07;99917.34;5001820;28;19921;-86
2022/07/18 20:15:13;;;;;;;;;;;;;;;11.90;95.69;99916.13;5002483;28;20388;-87
2022/07/18 20:17:48;;;;;;;;;;;;;;;11.38;93.11;99914.00;5012619;28;19914;-88
2022/07/18 20:20:23;;;;;;;;;;;;;;;11.67;96.03;99906.53;5012110;28;20430;-87
2022/07/18 20:22:49;;;;;;;;;;;;;;;11.52;94.57;99912.53;5020293;28;20001;-89
2022/07/18 20:25:24;;;;;;;;;;;;;;;13.43;98.23;99905.97;5000179;28;20008;-87
2022/07/18 20:27:50;;;;;;;;;;;;;;;12.59;99.67;99909.31;5016857;28;20012;-87
2022/07/18 20:30:17;;;;;;;;;;;;;;;12.13;98.52;99915.06;5022376;28;20023;-86
2022/07/18 20:32:45;;;;;;;;;;;;;;;12.33;99.23;99913.25;5013734;28;19929;-88
2022/07/18 20:35:13;;;;;;;;;;;;;;;11.82;97.46;99919.13;5004222;28;19968;-87
2022/07/18 20:37:39;;;;;;;;;;;;;;;12.17;98.91;99929.03;5020794;28;19929;-87
2022/07/18 20:40:04;;;;;;;;;;;;;;;11.76;97.76;99921.19;5012932;28;19925;-88
2022/07/18 20:42:30;;;;;;;;;;;;;;;12.06;98.86;99921.59;5010991;28;19917;-87
2022/07/18 20:44:55;;;;;;;;;;;;;;;11.83;97.53;99925.28;5013069;28;19925;-88
2022/07/18 20:47:21;;;;;;;;;;;;;;;12.04;97.99;99923.44;5018619;28;19963;-88
2022/07/18 20:49:47;;;;;;;;;;;;;;;11.79;97.06;99932.53;5004397;28;20332;-88
2022/07/18 20:52:12;;;;;;;;;;;;;;;11.84;97.61;99928.78;5014546;28;20004;-87
2022/07/18 20:54:37;;;;;;;;;;;;;;;11.75;97.02;99932.75;4997424;28;20296;-87
2022/07/18 20:57:10;;;;;;;;;;;;;;;11.60;96.31;99929.84;5014011;28;19928;-88